Time;durP1;ratioP1;P1;durP2;ratioP2;P2;SDS_P1;SDS_P2;PMS_P1;PMS_P2;Temp;Humidity;BMP_temperature;BMP_pressure;BME280_temperature;BME280_humidity;BME280_pressure;Samples;Min_cycle;Max_cycle;Signal;HPM_P1;HPM_P2
2022/06/21 00:00:46;;;;;;;6.80;3.15;;;15.40;99.90;;;;;;5015575;28;20164;-55
2022/06/21 00:03:17;;;;;;;5.63;3.45;;;15.50;99.90;;;;;;5015714;28;20259;-55
2022/06/21 00:05:45;;;;;;;3.65;3.17;;;15.40;99.90;;;;;;5015431;28;20200;-55
2022/06/21 00:08:21;;;;;;;5.10;3.25;;;15.40;99.90;;;;;;5015271;28;20165;-55
2022/06/21 00:10:47;;;;;;;3.35;3.05;;;15.30;99.90;;;;;;5015706;28;20164;-56
2022/06/21 00:13:19;;;;;;;6.82;3.22;;;15.30;99.90;;;;;;5015298;28;20189;-55
2022/06/21 00:15:46;;;;;;;4.85;3.25;;;15.30;99.90;;;;;;5015179;28;20652;-57
2022/06/21 00:18:14;;;;;;;5.43;3.47;;;15.30;99.90;;;;;;5015248;28;20171;-56
2022/06/21 00:20:41;;;;;;;5.60;2.83;;;15.10;99.90;;;;;;5015115;28;20630;-57
2022/06/21 00:23:11;;;;;;;6.93;3.50;;;15.10;99.90;;;;;;5015122;28;20168;-54
2022/06/21 00:25:36;;;;;;;7.38;3.30;;;15.10;99.90;;;;;;5015259;28;20619;-55
2022/06/21 00:28:02;;;;;;;5.25;3.15;;;15.00;99.90;;;;;;5014970;28;20172;-55
2022/06/21 00:30:27;;;;;;;6.85;3.70;;;15.00;99.90;;;;;;5015007;28;20523;-54
2022/06/21 00:32:54;;;;;;;4.90;3.00;;;15.00;99.90;;;;;;5014897;28;20172;-55
2022/06/21 00:35:23;;;;;;;8.07;2.97;;;14.90;99.90;;;;;;5015269;28;20169;-55
2022/06/21 00:37:49;;;;;;;5.55;3.28;;;14.90;99.90;;;;;;5015181;28;20192;-55
2022/06/21 00:40:26;;;;;;;4.10;2.92;;;14.90;99.90;;;;;;5014802;28;20172;-54
2022/06/21 00:43:00;;;;;;;4.63;3.25;;;14.80;99.90;;;;;;5015049;28;20195;-55
2022/06/21 00:45:34;;;;;;;6.38;2.83;;;14.90;99.90;;;;;;5014083;28;20557;-55
2022/06/21 00:48:12;;;;;;;3.90;2.92;;;14.80;99.90;;;;;;5014237;28;20164;-54
2022/06/21 00:50:42;;;;;;;4.68;2.78;;;14.90;99.90;;;;;;5014547;28;20212;-54
2022/06/21 00:53:13;;;;;;;3.90;3.00;;;14.80;99.90;;;;;;5014509;28;20182;-55
2022/06/21 00:55:42;;;;;;;4.88;3.63;;;14.70;99.90;;;;;;5014503;28;20168;-56
2022/06/21 00:58:12;;;;;;;5.78;3.35;;;14.70;99.90;;;;;;5014352;28;20164;-56
2022/06/21 01:00:42;;;;;;;7.03;3.13;;;14.80;99.90;;;;;;5014350;28;20536;-56
2022/06/21 01:03:20;;;;;;;9.73;3.40;;;14.80;99.90;;;;;;5014412;28;20172;-56
2022/06/21 01:05:46;;;;;;;4.95;2.90;;;14.70;99.90;;;;;;5014089;28;20204;-55
2022/06/21 01:08:19;;;;;;;5.25;3.15;;;14.70;99.90;;;;;;5014467;28;20172;-56
2022/06/21 01:10:50;;;;;;;5.45;3.22;;;14.70;99.90;;;;;;5014089;28;20172;-57
2022/06/21 01:13:20;;;;;;;5.22;3.38;;;14.60;99.90;;;;;;5014209;28;20176;-55
2022/06/21 01:15:49;;;;;;;4.35;3.03;;;14.70;99.90;;;;;;5014758;28;20164;-56
2022/06/21 01:18:18;;;;;;;6.95;3.50;;;14.70;99.90;;;;;;5014011;28;20164;-56
2022/06/21 01:20:52;;;;;;;6.57;3.30;;;14.70;99.90;;;;;;5014018;28;20251;-56
2022/06/21 01:23:27;;;;;;;6.88;3.67;;;14.70;99.90;;;;;;5014220;28;20575;-55
2022/06/21 01:26:14;;;;;;;6.15;3.05;;;14.60;99.90;;;;;;5013825;28;20214;-55
2022/06/21 01:28:40;;;;;;;5.30;3.13;;;14.60;99.90;;;;;;4998662;28;20164;-56
2022/06/21 01:31:07;;;;;;;3.60;3.10;;;14.50;99.90;;;;;;5014064;28;20179;-56
2022/06/21 01:33:36;;;;;;;5.28;3.60;;;14.50;99.90;;;;;;5013907;28;20168;-54
2022/06/21 01:36:07;;;;;;;6.45;3.83;;;14.50;99.90;;;;;;5013806;28;20200;-55
2022/06/21 01:38:38;;;;;;;4.60;3.45;;;14.60;99.90;;;;;;5013819;28;20184;-55
2022/06/21 01:41:09;;;;;;;6.35;3.60;;;14.50;99.90;;;;;;5013534;28;20207;-56
2022/06/21 01:43:40;;;;;;;7.65;3.40;;;14.40;99.90;;;;;;5013573;28;20175;-57
2022/06/21 01:46:10;;;;;;;6.10;3.15;;;14.30;99.90;;;;;;5013581;28;20222;-58
2022/06/21 01:48:41;;;;;;;5.22;3.38;;;14.30;99.90;;;;;;5013438;28;20203;-57
2022/06/21 01:51:11;;;;;;;9.48;3.15;;;14.40;99.90;;;;;;5013282;28;20330;-56
2022/06/21 01:53:38;;;;;;;5.80;2.83;;;14.40;99.90;;;;;;5013455;28;20336;-55
2022/06/21 01:56:09;;;;;;;3.58;2.85;;;14.30;99.90;;;;;;5013377;28;20250;-57
2022/06/21 01:58:43;;;;;;;3.40;3.10;;;14.30;99.90;;;;;;5012949;28;20186;-56
2022/06/21 02:01:17;;;;;;;6.57;3.45;;;14.30;99.90;;;;;;5013143;28;20178;-57
2022/06/21 02:03:45;;;;;;;4.32;2.92;;;14.20;99.90;;;;;;5013522;28;20176;-57
2022/06/21 02:06:14;;;;;;;6.57;3.35;;;14.10;99.90;;;;;;5013115;28;20567;-57
2022/06/21 02:08:54;;;;;;;5.85;3.47;;;14.00;99.90;;;;;;5013028;28;20156;-57
2022/06/21 02:11:30;;;;;;;4.78;3.10;;;13.90;99.90;;;;;;5013404;28;20191;-57
2022/06/21 02:16:48;;;;;;;4.60;3.72;;;13.80;99.90;;;;;;5012927;28;20175;-56
2022/06/21 02:19:24;;;;;;;5.63;3.40;;;13.70;99.90;;;;;;5012995;28;20175;-57
2022/06/21 02:21:50;;;;;;;9.13;4.05;;;13.70;99.90;;;;;;5012807;28;20191;-56
2022/06/21 02:24:16;;;;;;;5.00;4.13;;;13.70;99.90;;;;;;5013227;28;20278;-56
2022/06/21 02:26:42;;;;;;;7.30;3.95;;;13.80;99.90;;;;;;5013039;28;20607;-56
2022/06/21 02:29:12;;;;;;;7.35;3.40;;;13.90;99.90;;;;;;5012812;28;20175;-56
2022/06/21 02:31:39;;;;;;;8.50;4.05;;;13.90;99.90;;;;;;5012843;28;20172;-57
2022/06/21 02:34:11;;;;;;;7.75;3.40;;;13.90;99.90;;;;;;5012702;28;20168;-57
2022/06/21 02:36:46;;;;;;;5.60;3.00;;;13.70;99.90;;;;;;5012920;28;20191;-57
2022/06/21 02:39:18;;;;;;;8.68;3.30;;;13.70;99.90;;;;;;5012561;28;20168;-56
2022/06/21 02:41:48;;;;;;;7.78;3.08;;;13.70;99.90;;;;;;5012538;28;20656;-57
2022/06/21 02:44:28;;;;;;;6.95;3.13;;;13.60;99.90;;;;;;5012586;28;20179;-57
2022/06/21 02:46:59;;;;;;;7.18;3.63;;;13.60;99.90;;;;;;5012347;28;20203;-56
2022/06/21 02:49:42;;;;;;;8.85;3.53;;;13.50;99.90;;;;;;5012436;28;20170;-57
2022/06/21 02:52:15;;;;;;;7.88;4.28;;;13.30;99.90;;;;;;5012507;28;20186;-56
2022/06/21 02:54:53;;;;;;;7.22;3.72;;;13.20;99.90;;;;;;5012363;28;20172;-57
2022/06/21 02:57:31;;;;;;;10.80;4.30;;;13.30;99.90;;;;;;5012489;28;20199;-56
2022/06/21 02:59:58;;;;;;;6.78;3.65;;;13.30;99.90;;;;;;5012275;28;20671;-57
2022/06/21 03:02:28;;;;;;;10.57;4.85;;;13.40;99.90;;;;;;5012314;28;20543;-57
2022/06/21 03:04:59;;;;;;;9.05;4.85;;;13.50;99.90;;;;;;5012380;28;20164;-57
2022/06/21 03:07:28;;;;;;;13.18;5.32;;;13.50;99.90;;;;;;5012138;28;20172;-56
2022/06/21 03:09:54;;;;;;;8.27;4.60;;;13.50;99.90;;;;;;5011486;28;20661;-57
2022/06/21 03:12:23;;;;;;;5.97;4.25;;;13.50;99.90;;;;;;5012166;28;20254;-55
2022/06/21 03:14:53;;;;;;;6.95;4.57;;;13.60;99.90;;;;;;5012486;28;20164;-57
2022/06/21 03:17:23;;;;;;;6.60;4.30;;;13.60;99.90;;;;;;5012535;28;20168;-57
2022/06/21 03:19:52;;;;;;;6.38;3.90;;;13.50;99.90;;;;;;5012528;28;20180;-57
2022/06/21 03:22:21;;;;;;;7.90;3.92;;;13.40;99.90;;;;;;5012445;28;20641;-56
2022/06/21 03:24:50;;;;;;;5.97;4.00;;;13.40;99.90;;;;;;4994864;28;20191;-56
2022/06/21 03:27:43;;;;;;;6.90;3.75;;;13.30;99.90;;;;;;5012512;28;20208;-54
2022/06/21 03:30:09;;;;;;;5.63;3.33;;;13.20;99.90;;;;;;5012131;28;20168;-54
2022/06/21 03:32:37;;;;;;;9.90;4.45;;;13.10;99.90;;;;;;5012230;28;20208;-54
2022/06/21 03:35:04;;;;;;;7.38;3.85;;;13.10;99.90;;;;;;5012012;28;20180;-54
2022/06/21 03:37:30;;;;;;;7.20;4.03;;;13.10;99.90;;;;;;5011927;28;20174;-54
2022/06/21 03:42:45;;;;;;;7.78;3.78;;;13.30;99.90;;;;;;5012316;28;20182;-54
2022/06/21 03:45:19;;;;;;;7.85;4.18;;;13.30;99.90;;;;;;5011440;28;20164;-54
2022/06/21 03:47:57;;;;;;;7.82;3.72;;;13.20;99.90;;;;;;5012230;28;20582;-54
2022/06/21 03:50:38;;;;;;;7.03;4.43;;;13.20;99.90;;;;;;5011667;28;20207;-54
2022/06/21 03:53:08;;;;;;;10.45;4.63;;;13.10;99.90;;;;;;5011982;28;20210;-57
2022/06/21 03:55:40;;;;;;;10.23;4.32;;;13.20;99.90;;;;;;5011876;28;20172;-54
2022/06/21 03:58:22;;;;;;;5.57;4.28;;;13.20;99.90;;;;;;5011753;28;20160;-54
2022/06/21 04:01:05;;;;;;;6.95;4.07;;;13.30;99.90;;;;;;5012214;28;20214;-57
2022/06/21 04:03:56;;;;;;;7.30;4.85;;;13.40;99.90;;;;;;5011929;28;20172;-55
2022/06/21 04:06:32;;;;;;;10.15;5.85;;;13.40;99.90;;;;;;5010921;28;20223;-54
2022/06/21 04:09:07;;;;;;;7.30;4.53;;;13.40;99.90;;;;;;5011687;28;20634;-55
2022/06/21 04:12:25;;;;;;;13.05;5.03;;;13.50;99.90;;;;;;5011678;28;20171;-55
2022/06/21 04:15:06;;;;;;;7.65;4.43;;;13.60;99.90;;;;;;4957745;28;20216;-56
2022/06/21 04:17:44;;;;;;;8.90;4.25;;;13.50;99.90;;;;;;5011598;28;20175;-55
2022/06/21 04:20:47;;;;;;;8.57;4.60;;;13.40;99.90;;;;;;5012018;28;20170;-57
2022/06/21 04:23:15;;;;;;;5.70;4.05;;;13.30;99.90;;;;;;5014988;28;20659;-54
2022/06/21 04:25:44;;;;;;;8.23;4.13;;;13.20;99.90;;;;;;5014894;28;20696;-55
2022/06/21 04:28:19;;;;;;;6.95;4.43;;;13.30;99.90;;;;;;5014942;28;20503;-54
2022/06/21 04:30:58;;;;;;;5.50;4.60;;;13.30;99.90;;;;;;5015177;28;20218;-56
2022/06/21 04:33:35;;;;;;;7.22;4.00;;;13.50;99.90;;;;;;5014880;28;20179;-55
2022/06/21 04:36:05;;;;;;;6.75;4.35;;;13.90;99.90;;;;;;5014837;28;20724;-55
2022/06/21 04:38:46;;;;;;;6.38;4.15;;;14.30;99.90;;;;;;5014777;28;20525;-55
2022/06/21 04:41:25;;;;;;;5.55;3.88;;;14.60;99.90;;;;;;5014748;28;20172;-55
2022/06/21 04:43:59;;;;;;;5.57;4.38;;;14.90;99.90;;;;;;5014690;28;20250;-54
2022/06/21 04:46:39;;;;;;;7.50;4.13;;;15.00;99.90;;;;;;5014625;28;20609;-55
2022/06/21 04:49:31;;;;;;;6.40;3.97;;;15.20;99.90;;;;;;5014708;28;20527;-55
2022/06/21 04:52:06;;;;;;;6.65;4.03;;;15.40;99.90;;;;;;5014519;28;20192;-56
2022/06/21 04:54:35;;;;;;;6.68;3.80;;;15.40;99.90;;;;;;4996838;28;20172;-56
2022/06/21 04:57:15;;;;;;;4.88;3.60;;;15.60;99.90;;;;;;5014398;28;20195;-55
2022/06/21 04:59:47;;;;;;;5.22;3.88;;;15.60;99.90;;;;;;5014267;28;20170;-57
2022/06/21 05:02:28;;;;;;;7.13;4.10;;;15.60;99.90;;;;;;5014568;28;20172;-56
2022/06/21 05:05:12;;;;;;;7.88;4.00;;;15.80;99.90;;;;;;5014430;28;20257;-56
2022/06/21 05:07:46;;;;;;;7.47;3.80;;;15.80;99.90;;;;;;5014233;28;20248;-57
2022/06/21 05:10:19;;;;;;;4.68;3.60;;;15.90;99.90;;;;;;5014095;28;20167;-57
2022/06/21 05:12:47;;;;;;;9.95;4.30;;;15.90;99.90;;;;;;5014356;28;20176;-57
2022/06/21 05:15:16;;;;;;;6.60;4.00;;;15.90;99.90;;;;;;5014135;28;20168;-56
2022/06/21 05:17:45;;;;;;;5.30;3.83;;;15.80;99.90;;;;;;4996444;28;20172;-57
2022/06/21 05:20:20;;;;;;;9.50;4.20;;;16.00;99.90;;;;;;5014043;28;20172;-57
2022/06/21 05:22:52;;;;;;;8.13;4.43;;;16.00;99.90;;;;;;5014318;28;20179;-56
2022/06/21 05:25:29;;;;;;;8.48;3.70;;;16.10;99.90;;;;;;5013821;28;20206;-55
2022/06/21 05:28:11;;;;;;;4.40;3.90;;;16.10;99.90;;;;;;5014206;28;20266;-57
2022/06/21 05:30:51;;;;;;;8.65;4.82;;;16.10;99.90;;;;;;5014074;28;20400;-55
2022/06/21 05:33:39;;;;;;;6.45;3.95;;;16.20;99.90;;;;;;5013444;28;20168;-56
2022/06/21 05:36:10;;;;;;;7.18;4.25;;;16.20;99.90;;;;;;5013699;28;20197;-56
2022/06/21 05:38:46;;;;;;;8.18;4.13;;;16.40;99.90;;;;;;5013711;28;20638;-56
2022/06/21 05:41:32;;;;;;;10.25;4.22;;;16.60;99.90;;;;;;5013631;28;20199;-56
2022/06/21 05:44:10;;;;;;;7.20;4.10;;;16.60;99.90;;;;;;5013766;28;20206;-57
2022/06/21 05:46:43;;;;;;;5.03;3.85;;;16.60;99.90;;;;;;5013386;28;20208;-56
2022/06/21 05:49:21;;;;;;;6.55;3.90;;;16.80;99.90;;;;;;5013461;28;20252;-57
2022/06/21 05:51:48;;;;;;;7.18;3.97;;;16.80;99.90;;;;;;5013782;28;20724;-56
2022/06/21 05:54:17;;;;;;;8.68;3.88;;;17.00;99.90;;;;;;5013628;28;20188;-56
2022/06/21 05:56:44;;;;;;;9.40;4.10;;;17.00;99.90;;;;;;5013683;28;20254;-56
2022/06/21 05:59:15;;;;;;;6.45;3.63;;;17.00;99.90;;;;;;5013235;28;20262;-56
2022/06/21 06:01:53;;;;;;;8.07;3.97;;;16.90;99.90;;;;;;5013198;28;20187;-55
2022/06/21 06:04:31;;;;;;;4.45;3.90;;;16.80;99.90;;;;;;5013044;28;20266;-57
2022/06/21 06:06:59;;;;;;;11.20;4.70;;;16.80;99.90;;;;;;5013107;28;20214;-54
2022/06/21 06:09:32;;;;;;;8.52;3.50;;;16.80;99.90;;;;;;5013195;28;20174;-54
2022/06/21 06:12:08;;;;;;;5.50;3.85;;;16.80;99.90;;;;;;5013318;28;20180;-54
2022/06/21 06:14:40;;;;;;;7.32;4.20;;;17.10;99.90;;;;;;5013279;28;20168;-55
2022/06/21 06:17:18;;;;;;;6.80;4.45;;;17.00;99.90;;;;;;5013260;28;20175;-56
2022/06/21 06:19:51;;;;;;;5.45;3.92;;;17.00;99.90;;;;;;5013177;28;20167;-55
2022/06/21 06:22:36;;;;;;;6.60;4.72;;;16.40;99.90;;;;;;4995974;28;20176;-55
2022/06/21 06:25:31;;;;;;;7.32;4.63;;;17.00;99.90;;;;;;5011967;28;20180;-56
2022/06/21 06:28:11;;;;;;;8.00;4.30;;;17.10;99.90;;;;;;5012784;28;20322;-56
2022/06/21 06:31:09;;;;;;;10.02;4.10;;;17.10;99.90;;;;;;5012788;28;20168;-55
2022/06/21 06:33:59;;;;;;;8.50;4.50;;;17.20;99.90;;;;;;5012785;28;20164;-53
2022/06/21 06:36:35;;;;;;;5.75;3.95;;;17.50;99.90;;;;;;4998112;28;20179;-54
2022/06/21 06:39:03;;;;;;;6.53;4.05;;;17.60;99.90;;;;;;5012626;28;20210;-54
2022/06/21 06:41:45;;;;;;;6.45;4.28;;;17.50;99.90;;;;;;5012653;28;20160;-54
2022/06/21 06:44:11;;;;;;;6.07;4.07;;;17.70;99.90;;;;;;5012580;28;20172;-54
2022/06/21 06:46:44;;;;;;;12.27;4.30;;;17.50;99.90;;;;;;5012527;28;21255;-54
2022/06/21 06:49:26;;;;;;;11.48;4.38;;;17.60;99.90;;;;;;5012509;28;20164;-54
2022/06/21 06:51:58;;;;;;;6.18;3.78;;;18.10;99.90;;;;;;5012319;28;20554;-54
2022/06/21 06:54:36;;;;;;;8.30;4.63;;;18.00;99.90;;;;;;5012406;28;20168;-54
2022/06/21 06:57:17;;;;;;;7.40;3.80;;;18.40;99.90;;;;;;5012380;28;20175;-54
2022/06/21 06:59:44;;;;;;;7.30;4.10;;;18.50;99.90;;;;;;5012921;28;20706;-53
2022/06/21 07:02:19;;;;;;;6.60;4.30;;;18.60;99.90;;;;;;5012298;28;20160;-53
2022/06/21 07:04:50;;;;;;;8.98;3.70;;;18.00;99.90;;;;;;5012664;28;20166;-54
2022/06/21 07:07:26;;;;;;;6.25;3.45;;;18.90;99.90;;;;;;4994851;28;20279;-53
2022/06/21 07:09:57;;;;;;;5.13;4.10;;;18.80;99.90;;;;;;5012315;28;20200;-53
2022/06/21 07:12:27;;;;;;;8.48;3.92;;;18.90;99.90;;;;;;4994646;28;20538;-53
2022/06/21 07:14:54;;;;;;;5.53;4.03;;;18.90;99.90;;;;;;5012277;28;20167;-53
2022/06/21 07:17:40;;;;;;;7.50;3.80;;;18.90;99.90;;;;;;5012085;28;20277;-53
2022/06/21 07:20:18;;;;;;;6.38;3.80;;;19.00;99.90;;;;;;5012261;28;20314;-53
2022/06/21 07:22:43;;;;;;;7.35;3.70;;;19.10;99.90;;;;;;5012661;28;20182;-53
2022/06/21 07:25:28;;;;;;;6.55;3.50;;;19.20;99.90;;;;;;5012186;28;20768;-53
2022/06/21 07:28:04;;;;;;;5.85;3.63;;;19.10;99.90;;;;;;5012215;28;20531;-53
2022/06/21 07:30:39;;;;;;;6.68;3.83;;;19.40;99.90;;;;;;5012033;28;20159;-53
2022/06/21 07:33:12;;;;;;;9.27;3.83;;;19.60;99.90;;;;;;5011947;28;20641;-53
2022/06/21 07:35:47;;;;;;;6.53;3.20;;;19.80;99.90;;;;;;5011936;28;20182;-54
2022/06/21 07:38:43;;;;;;;6.90;3.42;;;19.80;99.90;;;;;;5012289;28;20164;-53
2022/06/21 07:41:29;;;;;;;6.38;3.60;;;20.00;99.90;;;;;;5007112;28;20184;-55
2022/06/21 07:44:01;;;;;;;5.82;3.10;;;20.10;99.90;;;;;;5011900;28;20168;-54
2022/06/21 07:46:40;;;;;;;5.32;3.33;;;20.20;99.90;;;;;;5012050;28;20600;-54
2022/06/21 07:49:27;;;;;;;6.00;3.05;;;20.20;99.90;;;;;;5011868;28;20502;-56
2022/06/21 07:51:57;;;;;;;11.23;3.22;;;19.90;99.90;;;;;;5011983;28;20196;-54
2022/06/21 07:54:38;;;;;;;5.15;2.70;;;19.70;99.90;;;;;;5006636;28;20177;-54
2022/06/21 07:57:10;;;;;;;4.72;3.17;;;19.90;99.90;;;;;;4994219;28;20176;-52
2022/06/21 07:59:43;;;;;;;7.13;3.30;;;20.10;99.90;;;;;;4994797;28;20168;-54
2022/06/21 08:08:09;;;;;;;5.53;2.90;;;20.60;99.90;;;;;;4994559;28;20235;-53
2022/06/21 08:11:02;;;;;;;7.07;2.60;;;20.60;99.90;;;;;;4994624;28;20156;-54
2022/06/21 08:13:29;;;;;;;3.40;2.50;;;20.70;99.90;;;;;;4994590;28;20728;-54
2022/06/21 08:16:13;;;;;;;8.40;2.88;;;20.70;99.90;;;;;;4994788;28;20236;-55
2022/06/21 08:18:39;;;;;;;6.90;2.88;;;21.00;99.90;;;;;;4994294;28;20594;-55
2022/06/21 08:21:13;;;;;;;18.35;4.10;;;21.10;99.90;;;;;;4994282;28;20169;-53
2022/06/21 08:23:50;;;;;;;6.18;2.70;;;21.20;99.90;;;;;;4994270;28;20174;-54
2022/06/21 08:26:30;;;;;;;6.28;3.63;;;21.30;99.90;;;;;;4994207;28;20298;-62
2022/06/21 08:29:17;;;;;;;8.15;3.70;;;21.50;99.90;;;;;;4994312;28;20626;-58
2022/06/21 08:31:51;;;;;;;6.13;3.45;;;21.60;99.90;;;;;;4993600;28;20307;-59
2022/06/21 08:34:37;;;;;;;5.95;3.00;;;21.60;99.90;;;;;;4994010;28;20229;-54
2022/06/21 08:37:12;;;;;;;5.70;2.92;;;21.60;99.90;;;;;;4994015;28;20175;-57
2022/06/21 08:39:47;;;;;;;5.78;2.35;;;21.50;99.90;;;;;;4993985;28;20187;-55
2022/06/21 08:42:30;;;;;;;6.72;2.47;;;21.50;99.90;;;;;;4994292;28;20176;-54
2022/06/21 08:45:43;;;;;;;5.47;2.33;;;21.70;99.90;;;;;;4993921;28;20175;-54
2022/06/21 08:48:29;;;;;;;10.77;3.10;;;21.50;99.90;;;;;;4960263;28;20673;-54
2022/06/21 08:51:49;;;;;;;6.18;2.95;;;21.60;99.90;;;;;;4993749;28;20270;-54
2022/06/21 08:54:33;;;;;;;6.15;2.75;;;21.50;99.90;;;;;;4914788;29;20278;-54
2022/06/21 08:57:11;;;;;;;5.18;3.42;;;21.80;99.90;;;;;;4970788;28;20195;-54
2022/06/21 09:00:03;;;;;;;4.85;2.50;;;22.40;99.90;;;;;;4993791;28;20180;-54
2022/06/21 09:02:36;;;;;;;5.03;2.30;;;22.30;99.90;;;;;;4993862;28;20176;-54
2022/06/21 09:05:33;;;;;;;5.10;2.50;;;22.50;99.90;;;;;;4993473;28;20247;-54
2022/06/21 09:08:12;;;;;;;5.78;2.72;;;22.40;99.90;;;;;;4992315;28;20219;-54
2022/06/21 09:11:07;;;;;;;9.40;3.17;;;22.60;99.90;;;;;;4993708;28;20553;-54
2022/06/21 09:13:42;;;;;;;4.05;2.90;;;22.80;99.90;;;;;;4976586;28;20542;-54
2022/06/21 09:16:19;;;;;;;4.20;2.60;;;23.00;99.90;;;;;;4993481;28;20194;-55
2022/06/21 09:19:00;;;;;;;5.43;2.67;;;22.60;99.90;;;;;;4993861;28;20168;-54
2022/06/21 09:21:35;;;;;;;4.88;3.00;;;22.60;99.90;;;;;;4993245;28;20165;-54
2022/06/21 09:24:16;;;;;;;6.43;2.80;;;22.70;99.90;;;;;;4992999;28;20207;-54
2022/06/21 09:26:59;;;;;;;7.15;2.80;;;22.70;99.90;;;;;;4993397;28;20208;-54
2022/06/21 09:29:39;;;;;;;3.97;2.92;;;22.80;99.90;;;;;;4993330;28;20173;-54
2022/06/21 09:32:11;;;;;;;2.70;2.50;;;23.00;99.90;;;;;;4992918;28;20661;-54
2022/06/21 09:35:15;;;;;;;7.00;2.92;;;22.80;99.90;;;;;;4993112;28;20181;-54
2022/06/21 09:38:26;;;;;;;4.32;2.60;;;22.60;99.90;;;;;;4993497;28;20284;-55
2022/06/21 09:41:20;;;;;;;4.60;2.67;;;22.70;99.90;;;;;;4913821;29;20179;-54
2022/06/21 09:44:30;;;;;;;5.88;2.72;;;22.90;99.90;;;;;;4914005;29;20171;-54
2022/06/21 09:46:55;;;;;;;4.95;2.90;;;23.10;99.90;;;;;;4992613;28;20580;-54
2022/06/21 09:49:43;;;;;;;7.43;2.88;;;23.00;99.90;;;;;;4992741;28;20183;-54
2022/06/21 09:52:24;;;;;;;4.95;2.80;;;22.90;99.90;;;;;;4992748;28;20184;-54
2022/06/21 09:55:14;;;;;;;5.20;2.75;;;22.90;99.90;;;;;;4993032;28;20219;-54
2022/06/21 09:58:00;;;;;;;6.32;2.58;;;23.00;99.90;;;;;;4992666;28;20259;-54
2022/06/21 10:00:42;;;;;;;5.15;2.60;;;22.70;99.90;;;;;;4992505;28;20179;-55
2022/06/21 10:03:31;;;;;;;5.85;3.35;;;22.80;99.90;;;;;;4992431;28;20721;-55
2022/06/21 10:06:02;;;;;;;3.65;2.40;;;22.90;98.90;;;;;;4992611;28;20220;-54
2022/06/21 10:09:02;;;;;;;5.25;2.72;;;22.70;99.90;;;;;;4992326;28;20168;-55
2022/06/21 10:11:57;;;;;;;4.47;2.40;;;22.80;99.90;;;;;;4992324;28;20204;-55
2022/06/21 10:14:47;;;;;;;5.45;2.63;;;23.20;99.90;;;;;;4992188;28;20172;-54
2022/06/21 10:17:48;;;;;;;5.25;2.53;;;23.20;99.90;;;;;;4992589;28;20185;-54
2022/06/21 10:20:31;;;;;;;4.95;2.30;;;23.50;99.90;;;;;;4992256;28;20641;-54
2022/06/21 10:23:09;;;;;;;3.25;2.35;;;23.20;98.10;;;;;;4992098;28;20175;-55
2022/06/21 10:25:58;;;;;;;4.93;2.60;;;23.20;97.10;;;;;;4991965;28;20226;-55
2022/06/21 10:28:56;;;;;;;7.43;2.78;;;23.20;97.80;;;;;;4991957;28;20226;-54
2022/06/21 10:31:51;;;;;;;5.50;2.10;;;23.20;98.20;;;;;;4992018;28;20168;-55
2022/06/21 10:34:25;;;;;;;5.05;2.50;;;23.30;99.10;;;;;;4991869;28;20207;-54
2022/06/21 10:37:02;;;;;;;2.47;2.28;;;23.40;97.50;;;;;;4991879;28;20179;-55
2022/06/21 10:39:35;;;;;;;3.67;2.65;;;23.30;96.30;;;;;;4992050;28;20176;-53
2022/06/21 10:42:46;;;;;;;5.25;2.90;;;23.50;97.30;;;;;;4991640;28;20654;-53
2022/06/21 10:45:35;;;;;;;4.93;2.20;;;23.40;96.00;;;;;;4991943;28;20160;-53
2022/06/21 10:48:31;;;;;;;7.65;2.65;;;23.60;98.50;;;;;;4991511;28;20719;-53
2022/06/21 10:51:39;;;;;;;4.75;2.70;;;23.70;98.70;;;;;;4991631;28;20219;-53
2022/06/21 10:54:21;;;;;;;5.22;2.90;;;23.70;97.30;;;;;;4955051;28;20266;-53
2022/06/21 10:57:14;;;;;;;4.55;2.58;;;23.50;97.40;;;;;;4991615;28;20180;-54
2022/06/21 11:02:50;;;;;;;6.97;2.70;;;23.60;98.10;;;;;;4991496;28;20175;-53
2022/06/21 11:05:19;;;;;;;4.50;2.60;;;23.40;99.90;;;;;;4991362;28;20179;-53
2022/06/21 11:07:58;;;;;;;4.85;2.33;;;23.40;97.80;;;;;;4991709;28;20227;-53
2022/06/21 11:10:35;;;;;;;5.80;2.58;;;23.80;99.90;;;;;;4991787;28;20573;-53
2022/06/21 11:13:06;;;;;;;5.07;2.67;;;24.40;97.50;;;;;;4991310;28;20168;-53
2022/06/21 11:15:50;;;;;;;7.38;2.72;;;24.20;95.40;;;;;;4991284;28;20194;-53
2022/06/21 11:18:33;;;;;;;5.35;2.70;;;24.40;97.20;;;;;;4991285;28;20230;-53
2022/06/21 11:21:20;;;;;;;5.88;3.17;;;24.60;95.70;;;;;;4991295;28;20626;-53
2022/06/21 11:24:03;;;;;;;5.07;2.70;;;24.70;95.20;;;;;;4991237;28;20641;-54
2022/06/21 11:26:53;;;;;;;6.03;2.92;;;24.60;96.20;;;;;;4991275;28;20241;-54
2022/06/21 11:29:54;;;;;;;6.10;2.55;;;25.10;95.60;;;;;;4991238;28;20587;-55
2022/06/21 11:32:57;;;;;;;5.70;2.90;;;25.40;92.30;;;;;;4995313;28;20588;-53
2022/06/21 11:36:13;;;;;;;8.15;2.35;;;25.30;94.00;;;;;;4995420;28;20179;-54
2022/06/21 11:39:11;;;;;;;4.22;2.38;;;25.70;93.60;;;;;;4915930;29;20182;-53
2022/06/21 11:42:08;;;;;;;9.50;2.92;;;25.80;90.90;;;;;;4916135;29;20167;-54
2022/06/21 11:44:48;;;;;;;3.92;2.17;;;25.60;93.20;;;;;;4986964;28;20184;-54
2022/06/21 11:47:22;;;;;;;2.97;2.15;;;25.10;90.50;;;;;;4995274;28;20211;-54
2022/06/21 11:50:02;;;;;;;4.72;2.30;;;25.20;90.90;;;;;;4994871;28;20226;-54
2022/06/21 11:52:31;;;;;;;4.00;2.30;;;25.00;92.10;;;;;;4994950;28;20259;-54
2022/06/21 11:55:22;;;;;;;4.65;2.92;;;25.40;92.40;;;;;;4995164;28;20255;-54
2022/06/21 11:58:10;;;;;;;4.18;2.47;;;25.60;91.20;;;;;;4977423;28;20172;-53
2022/06/21 12:00:59;;;;;;;4.03;2.17;;;25.70;91.00;;;;;;4994780;28;20168;-54
2022/06/21 12:03:48;;;;;;;4.18;2.33;;;25.60;90.10;;;;;;4994815;28;20169;-54
2022/06/21 12:06:29;;;;;;;5.22;2.70;;;26.00;90.60;;;;;;4994784;28;20220;-54
2022/06/21 12:09:13;;;;;;;4.38;2.70;;;26.00;87.50;;;;;;4994634;28;20174;-54
2022/06/21 12:12:15;;;;;;;4.00;2.50;;;26.10;90.30;;;;;;4994587;28;20168;-54
2022/06/21 12:14:59;;;;;;;4.35;2.40;;;26.20;84.40;;;;;;4994968;28;20187;-54
2022/06/21 12:17:39;;;;;;;6.18;2.30;;;26.40;85.80;;;;;;4994489;28;20263;-54
2022/06/21 12:20:16;;;;;;;3.72;2.38;;;26.40;81.10;;;;;;4994282;28;20160;-54
2022/06/21 12:22:47;;;;;;;3.05;2.20;;;26.10;81.80;;;;;;4994688;28;20164;-54
2022/06/21 12:25:16;;;;;;;7.47;2.05;;;26.10;83.00;;;;;;4994779;28;20247;-54
2022/06/21 12:27:41;;;;;;;6.68;2.78;;;26.10;84.90;;;;;;4994627;28;20168;-54
2022/06/21 12:30:26;;;;;;;4.15;2.05;;;26.20;83.60;;;;;;4994156;28;20756;-54
2022/06/21 12:33:01;;;;;;;4.53;2.38;;;26.40;86.00;;;;;;4994091;28;20223;-55
2022/06/21 12:35:53;;;;;;;5.30;2.60;;;27.10;83.40;;;;;;4994183;28;20168;-54
2022/06/21 12:38:32;;;;;;;7.78;2.50;;;26.60;82.80;;;;;;4994251;28;20191;-55
2022/06/21 12:41:15;;;;;;;11.32;2.90;;;26.40;81.60;;;;;;4993789;28;20192;-54
2022/06/21 12:44:03;;;;;;;3.53;2.70;;;26.20;82.70;;;;;;4994218;28;20652;-54
2022/06/21 12:46:35;;;;;;;3.13;2.42;;;25.90;85.00;;;;;;4994106;28;20294;-54
2022/06/21 12:49:25;;;;;;;4.65;2.20;;;25.90;86.70;;;;;;4993869;28;20176;-54
2022/06/21 12:51:59;;;;;;;4.20;2.17;;;26.40;86.00;;;;;;4993862;28;20650;-54
2022/06/21 12:54:46;;;;;;;6.20;2.33;;;26.80;86.40;;;;;;4993842;28;20172;-54
2022/06/21 12:57:45;;;;;;;5.47;2.65;;;26.50;83.90;;;;;;4993896;28;20633;-55
2022/06/21 13:00:53;;;;;;;3.85;2.60;;;26.50;83.60;;;;;;4994061;28;20219;-54
2022/06/21 13:03:24;;;;;;;4.57;2.45;;;26.50;82.00;;;;;;4983035;28;20215;-54
2022/06/21 13:06:20;;;;;;;4.68;2.38;;;26.50;82.60;;;;;;4993568;28;20199;-54
2022/06/21 13:09:00;;;;;;;3.05;2.40;;;26.90;81.50;;;;;;4993464;28;20168;-54
2022/06/21 13:12:10;;;;;;;3.65;2.05;;;26.60;79.40;;;;;;4993525;28;20196;-55
2022/06/21 13:15:11;;;;;;;2.08;1.77;;;26.50;80.80;;;;;;4993542;28;20207;-54
2022/06/21 13:17:55;;;;;;;2.50;1.95;;;26.50;79.60;;;;;;4975835;28;20274;-54
2022/06/21 13:20:38;;;;;;;2.55;1.65;;;26.20;79.80;;;;;;4993533;28;20172;-54
2022/06/21 13:23:07;;;;;;;5.38;2.17;;;26.10;81.30;;;;;;4993208;28;20168;-55
2022/06/21 13:26:02;;;;;;;5.25;2.47;;;26.30;81.00;;;;;;4993093;28;20160;-54
2022/06/21 13:28:55;;;;;;;4.25;2.25;;;26.40;80.70;;;;;;4993110;28;20168;-54
2022/06/21 13:31:34;;;;;;;2.97;1.92;;;26.50;80.00;;;;;;4993063;28;20665;-55
2022/06/21 13:34:26;;;;;;;4.43;2.38;;;26.30;78.10;;;;;;4992914;28;20271;-54
2022/06/21 13:36:55;;;;;;;2.78;2.15;;;26.50;78.40;;;;;;4993025;28;20160;-55
2022/06/21 13:39:43;;;;;;;4.85;2.20;;;26.60;78.90;;;;;;4993162;28;20187;-54
2022/06/21 13:42:37;;;;;;;2.85;2.10;;;26.50;76.70;;;;;;4993325;28;20598;-54
2022/06/21 13:45:38;;;;;;;3.38;2.08;;;26.40;76.90;;;;;;4992775;28;20183;-54
2022/06/21 13:48:28;;;;;;;3.22;2.17;;;26.10;78.20;;;;;;4992707;28;20672;-55
2022/06/21 13:50:58;;;;;;;4.22;2.17;;;26.20;77.50;;;;;;4992610;28;20255;-55
2022/06/21 13:53:58;;;;;;;3.50;2.33;;;26.30;78.10;;;;;;4992314;28;20176;-55
2022/06/21 13:56:46;;;;;;;4.18;2.28;;;26.30;80.00;;;;;;4992518;28;20199;-55
2022/06/21 13:59:16;;;;;;;4.65;2.28;;;26.60;77.90;;;;;;4992748;28;20520;-55